sensor_id;sensor_type;location;lat;lon;timestamp;P1;durP1;ratioP1;P2;durP2;ratioP2
3901;SDS011;1966;49.908;9.156;2023-02-19T00:04:25;8.33;;;6.30;;
3901;SDS011;1966;49.908;9.156;2023-02-19T00:09:24;7.20;;;6.33;;
3901;SDS011;1966;49.908;9.156;2023-02-19T00:14:23;9.93;;;6.60;;
3901;SDS011;1966;49.908;9.156;2023-02-19T00:19:23;7.30;;;6.40;;
3901;SDS011;1966;49.908;9.156;2023-02-19T00:24:23;7.27;;;6.10;;
3901;SDS011;1966;49.908;9.156;2023-02-19T00:29:23;11.33;;;6.30;;
3901;SDS011;1966;49.908;9.156;2023-02-19T00:34:22;6.97;;;6.27;;
3901;SDS011;1966;49.908;9.156;2023-02-19T00:39:22;8.30;;;6.13;;
3901;SDS011;1966;49.908;9.156;2023-02-19T00:44:22;7.80;;;5.90;;
3901;SDS011;1966;49.908;9.156;2023-02-19T00:49:22;8.03;;;6.67;;
3901;SDS011;1966;49.908;9.156;2023-02-19T00:54:21;7.73;;;6.57;;
3901;SDS011;1966;49.908;9.156;2023-02-19T00:59:20;9.50;;;7.30;;
3901;SDS011;1966;49.908;9.156;2023-02-19T01:04:21;9.53;;;6.10;;
3901;SDS011;1966;49.908;9.156;2023-02-19T01:09:20;6.77;;;6.07;;
3901;SDS011;1966;49.908;9.156;2023-02-19T01:14:19;8.97;;;6.30;;
3901;SDS011;1966;49.908;9.156;2023-02-19T01:19:18;7.37;;;6.57;;
3901;SDS011;1966;49.908;9.156;2023-02-19T01:24:19;7.50;;;6.80;;
3901;SDS011;1966;49.908;9.156;2023-02-19T01:29:18;7.60;;;5.97;;
3901;SDS011;1966;49.908;9.156;2023-02-19T01:34:17;7.57;;;6.10;;
3901;SDS011;1966;49.908;9.156;2023-02-19T01:39:17;7.70;;;6.40;;
3901;SDS011;1966;49.908;9.156;2023-02-19T01:49:36;7.37;;;5.97;;
3901;SDS011;1966;49.908;9.156;2023-02-19T01:54:37;6.70;;;6.00;;
3901;SDS011;1966;49.908;9.156;2023-02-19T01:59:38;8.63;;;6.00;;
3901;SDS011;1966;49.908;9.156;2023-02-19T02:04:39;7.47;;;5.97;;
3901;SDS011;1966;49.908;9.156;2023-02-19T02:09:38;6.83;;;6.13;;
3901;SDS011;1966;49.908;9.156;2023-02-19T02:14:55;6.53;;;5.27;;
3901;SDS011;1966;49.908;9.156;2023-02-19T02:20:05;6.33;;;5.73;;
3901;SDS011;1966;49.908;9.156;2023-02-19T02:25:21;7.10;;;5.90;;
3901;SDS011;1966;49.908;9.156;2023-02-19T02:30:32;6.20;;;5.60;;
3901;SDS011;1966;49.908;9.156;2023-02-19T02:35:34;6.00;;;5.40;;
3901;SDS011;1966;49.908;9.156;2023-02-19T02:40:36;5.77;;;5.13;;
3901;SDS011;1966;49.908;9.156;2023-02-19T02:45:39;7.53;;;6.10;;
3901;SDS011;1966;49.908;9.156;2023-02-19T02:50:39;7.17;;;5.60;;
3901;SDS011;1966;49.908;9.156;2023-02-19T02:55:40;5.60;;;5.00;;
3901;SDS011;1966;49.908;9.156;2023-02-19T03:00:43;6.03;;;5.43;;
3901;SDS011;1966;49.908;9.156;2023-02-19T03:06:01;6.13;;;5.57;;
3901;SDS011;1966;49.908;9.156;2023-02-19T03:11:03;5.60;;;5.00;;
3901;SDS011;1966;49.908;9.156;2023-02-19T03:16:19;5.30;;;4.80;;
3901;SDS011;1966;49.908;9.156;2023-02-19T03:21:36;5.60;;;4.90;;
3901;SDS011;1966;49.908;9.156;2023-02-19T03:26:36;4.87;;;4.37;;
3901;SDS011;1966;49.908;9.156;2023-02-19T03:31:37;5.60;;;4.10;;
3901;SDS011;1966;49.908;9.156;2023-02-19T03:36:39;4.33;;;3.93;;
3901;SDS011;1966;49.908;9.156;2023-02-19T03:41:41;4.60;;;4.20;;
3901;SDS011;1966;49.908;9.156;2023-02-19T03:46:44;5.00;;;4.00;;
3901;SDS011;1966;49.908;9.156;2023-02-19T03:51:47;6.10;;;4.60;;
3901;SDS011;1966;49.908;9.156;2023-02-19T03:56:49;5.33;;;4.27;;
3901;SDS011;1966;49.908;9.156;2023-02-19T04:01:52;4.43;;;3.70;;
3901;SDS011;1966;49.908;9.156;2023-02-19T04:06:53;5.13;;;4.20;;
3901;SDS011;1966;49.908;9.156;2023-02-19T04:11:52;4.27;;;3.87;;
3901;SDS011;1966;49.908;9.156;2023-02-19T04:16:54;4.57;;;4.17;;
3901;SDS011;1966;49.908;9.156;2023-02-19T04:21:56;5.27;;;4.80;;
3901;SDS011;1966;49.908;9.156;2023-02-19T04:26:56;5.70;;;5.10;;
3901;SDS011;1966;49.908;9.156;2023-02-19T04:31:57;6.30;;;5.33;;
3901;SDS011;1966;49.908;9.156;2023-02-19T04:36:56;5.13;;;4.63;;
3901;SDS011;1966;49.908;9.156;2023-02-19T04:41:55;6.07;;;5.30;;
3901;SDS011;1966;49.908;9.156;2023-02-19T04:46:54;6.93;;;4.77;;
3901;SDS011;1966;49.908;9.156;2023-02-19T04:51:55;5.97;;;4.50;;
3901;SDS011;1966;49.908;9.156;2023-02-19T04:56:54;4.53;;;4.13;;
3901;SDS011;1966;49.908;9.156;2023-02-19T05:01:54;4.53;;;4.13;;
3901;SDS011;1966;49.908;9.156;2023-02-19T05:06:55;4.70;;;4.20;;
3901;SDS011;1966;49.908;9.156;2023-02-19T05:11:55;4.60;;;4.20;;
3901;SDS011;1966;49.908;9.156;2023-02-19T05:16:54;4.60;;;4.20;;
3901;SDS011;1966;49.908;9.156;2023-02-19T05:21:53;4.07;;;3.67;;
3901;SDS011;1966;49.908;9.156;2023-02-19T05:26:54;5.33;;;4.00;;
3901;SDS011;1966;49.908;9.156;2023-02-19T05:31:53;4.77;;;4.27;;
3901;SDS011;1966;49.908;9.156;2023-02-19T05:36:52;4.03;;;3.63;;
3901;SDS011;1966;49.908;9.156;2023-02-19T05:41:51;4.47;;;3.87;;
3901;SDS011;1966;49.908;9.156;2023-02-19T05:46:52;4.20;;;3.80;;
3901;SDS011;1966;49.908;9.156;2023-02-19T05:51:51;4.27;;;3.87;;
3901;SDS011;1966;49.908;9.156;2023-02-19T05:56:50;4.90;;;4.00;;
3901;SDS011;1966;49.908;9.156;2023-02-19T06:01:51;4.50;;;4.10;;
3901;SDS011;1966;49.908;9.156;2023-02-19T06:06:51;4.67;;;4.27;;
3901;SDS011;1966;49.908;9.156;2023-02-19T06:11:50;4.37;;;3.97;;
3901;SDS011;1966;49.908;9.156;2023-02-19T06:16:50;5.70;;;4.33;;
3901;SDS011;1966;49.908;9.156;2023-02-19T06:21:49;8.03;;;4.00;;
3901;SDS011;1966;49.908;9.156;2023-02-19T06:26:50;4.80;;;4.17;;
3901;SDS011;1966;49.908;9.156;2023-02-19T06:31:49;5.83;;;4.17;;
3901;SDS011;1966;49.908;9.156;2023-02-19T06:36:48;4.30;;;3.37;;
3901;SDS011;1966;49.908;9.156;2023-02-19T06:41:47;4.23;;;3.77;;
3901;SDS011;1966;49.908;9.156;2023-02-19T06:46:48;6.07;;;3.73;;
3901;SDS011;1966;49.908;9.156;2023-02-19T06:51:47;3.73;;;3.43;;
3901;SDS011;1966;49.908;9.156;2023-02-19T06:56:47;3.30;;;3.00;;
3901;SDS011;1966;49.908;9.156;2023-02-19T07:01:46;5.33;;;3.07;;
3901;SDS011;1966;49.908;9.156;2023-02-19T07:06:46;3.00;;;2.70;;
3901;SDS011;1966;49.908;9.156;2023-02-19T07:11:46;3.07;;;2.70;;
3901;SDS011;1966;49.908;9.156;2023-02-19T07:16:45;3.67;;;2.87;;
3901;SDS011;1966;49.908;9.156;2023-02-19T07:21:44;3.80;;;3.40;;
3901;SDS011;1966;49.908;9.156;2023-02-19T07:26:45;4.37;;;3.07;;
3901;SDS011;1966;49.908;9.156;2023-02-19T07:31:44;4.00;;;3.20;;
3901;SDS011;1966;49.908;9.156;2023-02-19T07:36:43;2.90;;;2.70;;
3901;SDS011;1966;49.908;9.156;2023-02-19T07:41:42;3.00;;;2.70;;
3901;SDS011;1966;49.908;9.156;2023-02-19T07:46:43;4.60;;;2.60;;
3901;SDS011;1966;49.908;9.156;2023-02-19T07:51:42;2.80;;;2.20;;
3901;SDS011;1966;49.908;9.156;2023-02-19T07:56:42;2.20;;;2.00;;
3901;SDS011;1966;49.908;9.156;2023-02-19T08:01:41;3.20;;;2.23;;
3901;SDS011;1966;49.908;9.156;2023-02-19T08:06:59;2.60;;;2.30;;
3901;SDS011;1966;49.908;9.156;2023-02-19T08:11:58;2.23;;;2.00;;
3901;SDS011;1966;49.908;9.156;2023-02-19T08:17:15;3.63;;;1.90;;
3901;SDS011;1966;49.908;9.156;2023-02-19T08:22:16;1.80;;;1.70;;
3901;SDS011;1966;49.908;9.156;2023-02-19T08:27:15;2.30;;;2.10;;
3901;SDS011;1966;49.908;9.156;2023-02-19T08:32:14;2.97;;;2.03;;
3901;SDS011;1966;49.908;9.156;2023-02-19T08:37:14;4.00;;;2.37;;
3901;SDS011;1966;49.908;9.156;2023-02-19T08:42:14;4.13;;;2.30;;
3901;SDS011;1966;49.908;9.156;2023-02-19T08:47:13;5.93;;;2.53;;
3901;SDS011;1966;49.908;9.156;2023-02-19T08:52:13;2.77;;;2.20;;
3901;SDS011;1966;49.908;9.156;2023-02-19T08:57:12;7.30;;;3.27;;
3901;SDS011;1966;49.908;9.156;2023-02-19T09:02:12;2.53;;;2.30;;
3901;SDS011;1966;49.908;9.156;2023-02-19T09:07:12;4.50;;;2.60;;
3901;SDS011;1966;49.908;9.156;2023-02-19T09:12:11;5.93;;;2.50;;
3901;SDS011;1966;49.908;9.156;2023-02-19T09:17:10;3.60;;;2.07;;
3901;SDS011;1966;49.908;9.156;2023-02-19T09:22:11;3.57;;;2.63;;
3901;SDS011;1966;49.908;9.156;2023-02-19T09:27:13;5.60;;;2.23;;
3901;SDS011;1966;49.908;9.156;2023-02-19T09:32:13;4.20;;;2.63;;
3901;SDS011;1966;49.908;9.156;2023-02-19T09:37:13;4.27;;;2.60;;
3901;SDS011;1966;49.908;9.156;2023-02-19T09:42:14;3.03;;;2.60;;
3901;SDS011;1966;49.908;9.156;2023-02-19T09:47:16;2.87;;;2.13;;
3901;SDS011;1966;49.908;9.156;2023-02-19T09:52:18;2.67;;;1.87;;
3901;SDS011;1966;49.908;9.156;2023-02-19T09:57:21;3.10;;;2.40;;
3901;SDS011;1966;49.908;9.156;2023-02-19T10:02:21;4.50;;;2.37;;
3901;SDS011;1966;49.908;9.156;2023-02-19T10:07:23;3.20;;;2.30;;
3901;SDS011;1966;49.908;9.156;2023-02-19T10:12:24;4.77;;;2.73;;
3901;SDS011;1966;49.908;9.156;2023-02-19T10:17:24;4.37;;;2.20;;
3901;SDS011;1966;49.908;9.156;2023-02-19T10:22:25;2.40;;;2.00;;
3901;SDS011;1966;49.908;9.156;2023-02-19T10:27:25;2.63;;;2.20;;
3901;SDS011;1966;49.908;9.156;2023-02-19T10:32:25;3.63;;;2.80;;
3901;SDS011;1966;49.908;9.156;2023-02-19T10:37:27;5.40;;;2.80;;
3901;SDS011;1966;49.908;9.156;2023-02-19T10:42:27;3.50;;;2.60;;
3901;SDS011;1966;49.908;9.156;2023-02-19T10:47:27;3.53;;;2.57;;
3901;SDS011;1966;49.908;9.156;2023-02-19T10:52:29;2.60;;;2.40;;
3901;SDS011;1966;49.908;9.156;2023-02-19T10:57:31;4.60;;;3.00;;
3901;SDS011;1966;49.908;9.156;2023-02-19T11:02:32;4.77;;;3.00;;
3901;SDS011;1966;49.908;9.156;2023-02-19T11:07:32;9.70;;;7.07;;
3901;SDS011;1966;49.908;9.156;2023-02-19T11:12:32;6.53;;;3.27;;
3901;SDS011;1966;49.908;9.156;2023-02-19T11:17:32;8.20;;;4.27;;
3901;SDS011;1966;49.908;9.156;2023-02-19T11:22:33;15.10;;;8.83;;
3901;SDS011;1966;49.908;9.156;2023-02-19T11:27:33;10.80;;;3.60;;
3901;SDS011;1966;49.908;9.156;2023-02-19T11:32:32;6.87;;;3.40;;
3901;SDS011;1966;49.908;9.156;2023-02-19T11:37:33;6.73;;;4.50;;
3901;SDS011;1966;49.908;9.156;2023-02-19T11:42:35;7.07;;;4.13;;
3901;SDS011;1966;49.908;9.156;2023-02-19T11:47:39;15.47;;;7.73;;
3901;SDS011;1966;49.908;9.156;2023-02-19T11:52:45;12.83;;;8.13;;
3901;SDS011;1966;49.908;9.156;2023-02-19T11:57:47;10.43;;;6.30;;
3901;SDS011;1966;49.908;9.156;2023-02-19T12:08:24;8.90;;;6.50;;
3901;SDS011;1966;49.908;9.156;2023-02-19T12:13:28;8.97;;;6.37;;
3901;SDS011;1966;49.908;9.156;2023-02-19T12:18:38;6.17;;;4.00;;
3901;SDS011;1966;49.908;9.156;2023-02-19T12:23:56;5.30;;;4.07;;
3901;SDS011;1966;49.908;9.156;2023-02-19T12:29:01;5.83;;;3.97;;
3901;SDS011;1966;49.908;9.156;2023-02-19T12:39:21;10.40;;;5.00;;
3901;SDS011;1966;49.908;9.156;2023-02-19T12:44:25;7.97;;;6.17;;
3901;SDS011;1966;49.908;9.156;2023-02-19T12:49:32;8.93;;;6.50;;
3901;SDS011;1966;49.908;9.156;2023-02-19T12:54:34;8.43;;;4.90;;
3901;SDS011;1966;49.908;9.156;2023-02-19T12:59:36;7.03;;;4.87;;
3901;SDS011;1966;49.908;9.156;2023-02-19T13:04:40;6.30;;;4.83;;
3901;SDS011;1966;49.908;9.156;2023-02-19T13:09:43;9.80;;;4.43;;
3901;SDS011;1966;49.908;9.156;2023-02-19T13:14:45;8.70;;;6.00;;
3901;SDS011;1966;49.908;9.156;2023-02-19T13:19:47;5.67;;;3.23;;
3901;SDS011;1966;49.908;9.156;2023-02-19T13:24:48;7.20;;;4.43;;
3901;SDS011;1966;49.908;9.156;2023-02-19T13:29:52;5.03;;;4.33;;
3901;SDS011;1966;49.908;9.156;2023-02-19T13:34:59;5.53;;;3.90;;
3901;SDS011;1966;49.908;9.156;2023-02-19T13:40:03;6.03;;;4.17;;
3901;SDS011;1966;49.908;9.156;2023-02-19T13:45:04;6.40;;;3.83;;
3901;SDS011;1966;49.908;9.156;2023-02-19T13:50:05;5.00;;;4.00;;
3901;SDS011;1966;49.908;9.156;2023-02-19T14:06:00;6.20;;;4.00;;
3901;SDS011;1966;49.908;9.156;2023-02-19T14:10:59;6.13;;;3.90;;
3901;SDS011;1966;49.908;9.156;2023-02-19T14:16:02;5.40;;;3.33;;
3901;SDS011;1966;49.908;9.156;2023-02-19T14:21:11;6.90;;;4.13;;
3901;SDS011;1966;49.908;9.156;2023-02-19T14:26:12;5.60;;;3.90;;
3901;SDS011;1966;49.908;9.156;2023-02-19T14:36:36;4.73;;;3.33;;
3901;SDS011;1966;49.908;9.156;2023-02-19T14:41:41;4.87;;;3.60;;
3901;SDS011;1966;49.908;9.156;2023-02-19T14:46:44;6.63;;;3.93;;
3901;SDS011;1966;49.908;9.156;2023-02-19T14:51:48;4.67;;;3.30;;
3901;SDS011;1966;49.908;9.156;2023-02-19T14:56:49;9.70;;;4.50;;
3901;SDS011;1966;49.908;9.156;2023-02-19T15:01:52;6.17;;;3.73;;
3901;SDS011;1966;49.908;9.156;2023-02-19T15:06:53;4.90;;;2.80;;
3901;SDS011;1966;49.908;9.156;2023-02-19T15:11:54;5.33;;;4.00;;
3901;SDS011;1966;49.908;9.156;2023-02-19T15:16:55;8.63;;;5.10;;
3901;SDS011;1966;49.908;9.156;2023-02-19T15:21:56;3.90;;;3.13;;
3901;SDS011;1966;49.908;9.156;2023-02-19T15:26:55;5.53;;;3.97;;
3901;SDS011;1966;49.908;9.156;2023-02-19T15:31:55;3.47;;;2.90;;
3901;SDS011;1966;49.908;9.156;2023-02-19T15:36:57;3.87;;;3.47;;
3901;SDS011;1966;49.908;9.156;2023-02-19T15:41:58;4.87;;;3.33;;
3901;SDS011;1966;49.908;9.156;2023-02-19T15:46:59;2.87;;;2.57;;
3901;SDS011;1966;49.908;9.156;2023-02-19T15:52:02;5.50;;;2.67;;
3901;SDS011;1966;49.908;9.156;2023-02-19T15:57:04;3.60;;;2.60;;
3901;SDS011;1966;49.908;9.156;2023-02-19T16:02:04;3.10;;;2.60;;
3901;SDS011;1966;49.908;9.156;2023-02-19T16:07:21;4.00;;;3.60;;
3901;SDS011;1966;49.908;9.156;2023-02-19T16:12:21;3.50;;;3.20;;
3901;SDS011;1966;49.908;9.156;2023-02-19T16:17:21;5.20;;;4.23;;
3901;SDS011;1966;49.908;9.156;2023-02-19T16:22:27;7.40;;;3.23;;
3901;SDS011;1966;49.908;9.156;2023-02-19T16:27:27;5.57;;;3.30;;
3901;SDS011;1966;49.908;9.156;2023-02-19T16:32:27;5.27;;;3.53;;
3901;SDS011;1966;49.908;9.156;2023-02-19T16:37:36;3.73;;;3.33;;
3901;SDS011;1966;49.908;9.156;2023-02-19T16:42:37;3.83;;;3.27;;
3901;SDS011;1966;49.908;9.156;2023-02-19T16:47:55;3.60;;;3.10;;
3901;SDS011;1966;49.908;9.156;2023-02-19T16:52:56;4.00;;;3.00;;
3901;SDS011;1966;49.908;9.156;2023-02-19T16:57:56;3.67;;;3.30;;
3901;SDS011;1966;49.908;9.156;2023-02-19T17:02:56;3.33;;;3.03;;
3901;SDS011;1966;49.908;9.156;2023-02-19T17:07:57;5.40;;;2.90;;
3901;SDS011;1966;49.908;9.156;2023-02-19T17:12:56;3.97;;;3.53;;
3901;SDS011;1966;49.908;9.156;2023-02-19T17:17:55;4.63;;;4.00;;
3901;SDS011;1966;49.908;9.156;2023-02-19T17:22:55;9.13;;;6.20;;
3901;SDS011;1966;49.908;9.156;2023-02-19T17:27:56;7.73;;;5.40;;
3901;SDS011;1966;49.908;9.156;2023-02-19T17:32:55;9.77;;;4.80;;
3901;SDS011;1966;49.908;9.156;2023-02-19T17:37:54;10.57;;;6.50;;
3901;SDS011;1966;49.908;9.156;2023-02-19T17:42:53;10.20;;;6.60;;
3901;SDS011;1966;49.908;9.156;2023-02-19T17:47:54;8.83;;;6.33;;
3901;SDS011;1966;49.908;9.156;2023-02-19T17:52:53;9.87;;;6.80;;
3901;SDS011;1966;49.908;9.156;2023-02-19T17:57:52;6.53;;;5.20;;
3901;SDS011;1966;49.908;9.156;2023-02-19T18:02:53;4.83;;;4.30;;
3901;SDS011;1966;49.908;9.156;2023-02-19T18:07:52;3.60;;;3.13;;
3901;SDS011;1966;49.908;9.156;2023-02-19T18:12:52;3.57;;;3.27;;
3901;SDS011;1966;49.908;9.156;2023-02-19T18:17:51;5.10;;;3.53;;
3901;SDS011;1966;49.908;9.156;2023-02-19T18:22:52;6.07;;;4.33;;
3901;SDS011;1966;49.908;9.156;2023-02-19T18:27:51;5.70;;;4.33;;
3901;SDS011;1966;49.908;9.156;2023-02-19T18:32:51;12.40;;;8.17;;
3901;SDS011;1966;49.908;9.156;2023-02-19T18:37:52;5.70;;;4.50;;
3901;SDS011;1966;49.908;9.156;2023-02-19T18:42:51;6.30;;;5.23;;
3901;SDS011;1966;49.908;9.156;2023-02-19T18:47:51;6.20;;;4.80;;
3901;SDS011;1966;49.908;9.156;2023-02-19T18:52:51;9.03;;;4.60;;
3901;SDS011;1966;49.908;9.156;2023-02-19T18:57:51;11.70;;;4.57;;
3901;SDS011;1966;49.908;9.156;2023-02-19T19:02:52;6.13;;;4.20;;
3901;SDS011;1966;49.908;9.156;2023-02-19T19:07:54;8.20;;;5.70;;
3901;SDS011;1966;49.908;9.156;2023-02-19T19:12:54;9.97;;;5.53;;
3901;SDS011;1966;49.908;9.156;2023-02-19T19:17:54;6.73;;;4.77;;
3901;SDS011;1966;49.908;9.156;2023-02-19T19:22:55;9.43;;;4.30;;
3901;SDS011;1966;49.908;9.156;2023-02-19T19:27:54;5.60;;;3.80;;
3901;SDS011;1966;49.908;9.156;2023-02-19T19:32:53;6.37;;;3.60;;
3901;SDS011;1966;49.908;9.156;2023-02-19T19:37:52;7.67;;;3.40;;
3901;SDS011;1966;49.908;9.156;2023-02-19T19:42:53;5.47;;;4.23;;
3901;SDS011;1966;49.908;9.156;2023-02-19T19:47:52;6.70;;;4.20;;
3901;SDS011;1966;49.908;9.156;2023-02-19T19:52:52;8.83;;;4.30;;
3901;SDS011;1966;49.908;9.156;2023-02-19T19:57:51;9.60;;;5.37;;
3901;SDS011;1966;49.908;9.156;2023-02-19T20:02:52;7.40;;;5.03;;
3901;SDS011;1966;49.908;9.156;2023-02-19T20:07:52;6.83;;;5.20;;
3901;SDS011;1966;49.908;9.156;2023-02-19T20:12:51;5.17;;;4.53;;
3901;SDS011;1966;49.908;9.156;2023-02-19T20:17:52;7.50;;;5.30;;
3901;SDS011;1966;49.908;9.156;2023-02-19T20:22:52;7.27;;;4.40;;
3901;SDS011;1966;49.908;9.156;2023-02-19T20:27:51;9.13;;;5.60;;
3901;SDS011;1966;49.908;9.156;2023-02-19T20:32:52;9.83;;;5.30;;
3901;SDS011;1966;49.908;9.156;2023-02-19T20:37:51;6.73;;;4.50;;
3901;SDS011;1966;49.908;9.156;2023-02-19T20:42:51;11.37;;;5.37;;
3901;SDS011;1966;49.908;9.156;2023-02-19T20:47:50;8.80;;;5.63;;
3901;SDS011;1966;49.908;9.156;2023-02-19T20:52:51;9.50;;;5.77;;
3901;SDS011;1966;49.908;9.156;2023-02-19T20:57:52;6.13;;;4.47;;
3901;SDS011;1966;49.908;9.156;2023-02-19T21:02:51;7.80;;;4.40;;
3901;SDS011;1966;49.908;9.156;2023-02-19T21:07:52;6.67;;;4.27;;
3901;SDS011;1966;49.908;9.156;2023-02-19T21:12:51;6.13;;;4.47;;
3901;SDS011;1966;49.908;9.156;2023-02-19T21:17:51;6.23;;;4.63;;
3901;SDS011;1966;49.908;9.156;2023-02-19T21:22:50;10.73;;;5.90;;
3901;SDS011;1966;49.908;9.156;2023-02-19T21:27:51;6.87;;;5.17;;
3901;SDS011;1966;49.908;9.156;2023-02-19T21:32:50;8.00;;;5.50;;
3901;SDS011;1966;49.908;9.156;2023-02-19T21:37:49;8.90;;;6.10;;
3901;SDS011;1966;49.908;9.156;2023-02-19T21:42:48;9.17;;;6.33;;
3901;SDS011;1966;49.908;9.156;2023-02-19T21:47:49;9.50;;;6.47;;
3901;SDS011;1966;49.908;9.156;2023-02-19T21:52:49;9.37;;;6.80;;
3901;SDS011;1966;49.908;9.156;2023-02-19T21:57:48;13.83;;;7.00;;
3901;SDS011;1966;49.908;9.156;2023-02-19T22:02:48;13.93;;;7.37;;
3901;SDS011;1966;49.908;9.156;2023-02-19T22:07:48;10.07;;;6.43;;
3901;SDS011;1966;49.908;9.156;2023-02-19T22:12:49;9.77;;;6.57;;
3901;SDS011;1966;49.908;9.156;2023-02-19T22:17:48;10.13;;;5.97;;
3901;SDS011;1966;49.908;9.156;2023-02-19T22:22:49;11.50;;;7.03;;
3901;SDS011;1966;49.908;9.156;2023-02-19T22:27:48;12.47;;;6.47;;
3901;SDS011;1966;49.908;9.156;2023-02-19T22:32:47;10.87;;;6.97;;
3901;SDS011;1966;49.908;9.156;2023-02-19T22:37:48;11.30;;;6.90;;
3901;SDS011;1966;49.908;9.156;2023-02-19T22:42:47;11.63;;;6.70;;
3901;SDS011;1966;49.908;9.156;2023-02-19T22:47:46;10.23;;;7.00;;
3901;SDS011;1966;49.908;9.156;2023-02-19T22:52:46;8.43;;;6.33;;
3901;SDS011;1966;49.908;9.156;2023-02-19T22:57:46;10.37;;;7.10;;
3901;SDS011;1966;49.908;9.156;2023-02-19T23:02:46;11.00;;;7.57;;
3901;SDS011;1966;49.908;9.156;2023-02-19T23:07:45;10.77;;;6.90;;
3901;SDS011;1966;49.908;9.156;2023-02-19T23:12:44;7.60;;;5.73;;
3901;SDS011;1966;49.908;9.156;2023-02-19T23:17:45;11.97;;;6.07;;
3901;SDS011;1966;49.908;9.156;2023-02-19T23:22:44;8.63;;;6.53;;
3901;SDS011;1966;49.908;9.156;2023-02-19T23:27:43;10.60;;;8.00;;
3901;SDS011;1966;49.908;9.156;2023-02-19T23:32:42;11.97;;;7.60;;
3901;SDS011;1966;49.908;9.156;2023-02-19T23:37:43;14.20;;;8.73;;
3901;SDS011;1966;49.908;9.156;2023-02-19T23:42:42;14.63;;;8.07;;
3901;SDS011;1966;49.908;9.156;2023-02-19T23:47:41;10.47;;;6.97;;
3901;SDS011;1966;49.908;9.156;2023-02-19T23:52:41;10.93;;;7.30;;
3901;SDS011;1966;49.908;9.156;2023-02-19T23:57:41;11.07;;;6.73;;
